Time;durP1;ratioP1;P1;durP2;ratioP2;P2;SDS_P1;SDS_P2;PMS_P1;PMS_P2;Temp;Humidity;BMP_temperature;BMP_pressure;BME280_temperature;BME280_humidity;BME280_pressure;Samples;Min_cycle;Max_cycle;Signal;HPM_P1;HPM_P2
2021/03/31 00:01:40;;;;;;;4.03;2.63;;;5.90;99.90;;;;;;5043592;28;20703;-78
2021/03/31 00:04:06;;;;;;;4.33;2.20;;;5.90;99.90;;;;;;5046517;28;20185;-78
2021/03/31 00:06:32;;;;;;;3.37;2.27;;;6.00;99.90;;;;;;5047287;28;20194;-78
2021/03/31 00:08:58;;;;;;;3.23;2.30;;;5.90;99.90;;;;;;5049420;28;20178;-79
2021/03/31 00:11:24;;;;;;;4.60;3.20;;;5.80;99.90;;;;;;5048706;28;20178;-79
2021/03/31 00:13:49;;;;;;;3.83;2.00;;;5.70;99.90;;;;;;5047797;28;20188;-79
2021/03/31 00:16:15;;;;;;;3.50;1.87;;;5.70;99.90;;;;;;5046393;28;20202;-79
2021/03/31 00:18:41;;;;;;;2.93;2.43;;;5.60;99.90;;;;;;5048997;28;20189;-79
2021/03/31 00:21:07;;;;;;;3.70;2.63;;;5.50;99.90;;;;;;5047009;28;20210;-78
2021/03/31 00:23:33;;;;;;;3.37;2.57;;;5.60;99.90;;;;;;5047245;28;20182;-78
2021/03/31 00:25:59;;;;;;;3.50;2.50;;;5.40;99.90;;;;;;5046414;28;20268;-78
2021/03/31 00:28:25;;;;;;;4.50;2.60;;;5.30;99.90;;;;;;5049312;28;20181;-78
2021/03/31 00:30:52;;;;;;;2.13;1.87;;;5.30;99.90;;;;;;5047331;28;20859;-79
2021/03/31 00:33:19;;;;;;;3.37;2.13;;;5.20;99.90;;;;;;5047060;28;20301;-78
2021/03/31 00:35:44;;;;;;;2.30;1.73;;;5.20;99.90;;;;;;5046167;28;20717;-78
2021/03/31 00:38:11;;;;;;;2.73;1.57;;;5.10;99.90;;;;;;5046864;28;20202;-78
2021/03/31 00:40:52;;;;;;;2.80;1.93;;;5.20;99.90;;;;;;5048063;28;20201;-78
2021/03/31 00:43:19;;;;;;;4.33;3.00;;;5.10;99.90;;;;;;5047802;28;20174;-79
2021/03/31 00:45:45;;;;;;;4.67;2.03;;;5.10;99.90;;;;;;5046313;28;20235;-79
2021/03/31 00:48:15;;;;;;;4.07;2.13;;;5.10;99.90;;;;;;5046410;28;20437;-78
2021/03/31 00:50:44;;;;;;;3.03;2.17;;;5.20;99.90;;;;;;5048315;28;20170;-79
2021/03/31 00:53:12;;;;;;;3.37;2.00;;;5.20;99.90;;;;;;5047658;28;20325;-79
2021/03/31 00:55:38;;;;;;;4.33;2.10;;;5.30;99.90;;;;;;5045783;28;20231;-79
2021/03/31 00:58:04;;;;;;;3.47;2.30;;;5.30;99.90;;;;;;5046343;28;20580;-78
2021/03/31 01:00:30;;;;;;;3.27;2.00;;;5.30;99.90;;;;;;5045673;28;20243;-78
2021/03/31 01:02:55;;;;;;;3.30;2.20;;;5.30;99.90;;;;;;5046627;28;20715;-78
2021/03/31 01:05:26;;;;;;;2.47;2.03;;;5.30;99.90;;;;;;5046445;28;20183;-80
2021/03/31 01:07:53;;;;;;;4.23;2.17;;;5.20;99.90;;;;;;5047562;28;20232;-78
2021/03/31 01:10:24;;;;;;;3.27;2.23;;;5.10;99.90;;;;;;5048754;28;20174;-78
2021/03/31 01:13:09;;;;;;;2.70;1.60;;;5.10;99.90;;;;;;5048791;28;20203;-79
2021/03/31 01:15:45;;;;;;;4.07;2.00;;;5.10;99.90;;;;;;5047641;28;20653;-81
2021/03/31 01:18:32;;;;;;;2.87;1.83;;;5.00;99.90;;;;;;5048622;28;20221;-78
2021/03/31 01:21:09;;;;;;;3.30;2.00;;;5.00;99.90;;;;;;5048636;28;20178;-78
2021/03/31 01:23:56;;;;;;;3.17;1.63;;;4.90;99.90;;;;;;5046653;28;20181;-81
2021/03/31 01:26:42;;;;;;;2.50;1.43;;;4.80;99.90;;;;;;5046171;28;20200;-79
2021/03/31 01:29:45;;;;;;;2.37;1.87;;;4.70;99.90;;;;;;5049225;28;20182;-78
2021/03/31 01:32:26;;;;;;;1.77;1.60;;;4.80;99.90;;;;;;5047664;28;20182;-79
2021/03/31 01:34:54;;;;;;;2.80;1.90;;;4.70;99.90;;;;;;5046323;28;20190;-80
2021/03/31 01:37:49;;;;;;;1.83;1.57;;;4.70;99.90;;;;;;5046414;28;20201;-78
2021/03/31 01:40:18;;;;;;;2.40;1.97;;;4.70;99.90;;;;;;5047732;28;20190;-77
2021/03/31 01:42:48;;;;;;;5.23;2.17;;;4.60;99.90;;;;;;5046521;28;20202;-81
2021/03/31 01:45:17;;;;;;;2.77;1.73;;;4.60;99.90;;;;;;5046522;28;20742;-81
2021/03/31 01:47:46;;;;;;;2.33;1.70;;;4.50;99.90;;;;;;5037793;28;20300;-79
2021/03/31 01:50:13;;;;;;;2.23;1.83;;;4.30;99.90;;;;;;5047880;28;20216;-78
2021/03/31 01:52:41;;;;;;;2.77;1.93;;;4.30;99.90;;;;;;5046253;28;20667;-78
2021/03/31 01:55:08;;;;;;;1.97;1.77;;;4.40;99.90;;;;;;5047381;28;20174;-78
2021/03/31 01:57:35;;;;;;;4.07;2.80;;;4.30;99.90;;;;;;5046142;28;20252;-79
2021/03/31 02:00:02;;;;;;;4.20;2.43;;;4.30;99.90;;;;;;5046119;28;20212;-80
2021/03/31 02:02:29;;;;;;;4.53;2.00;;;4.30;99.90;;;;;;5047386;28;20253;-79
2021/03/31 02:04:56;;;;;;;3.67;2.07;;;4.30;99.90;;;;;;5046626;28;20516;-78
2021/03/31 02:07:22;;;;;;;4.40;2.50;;;4.30;99.90;;;;;;5046110;28;20202;-79
2021/03/31 02:09:50;;;;;;;2.43;1.50;;;4.40;99.90;;;;;;5046041;28;20660;-79
2021/03/31 02:12:19;;;;;;;2.43;1.70;;;4.30;99.90;;;;;;5046019;28;20178;-78
2021/03/31 02:14:46;;;;;;;1.90;1.47;;;4.30;99.90;;;;;;5046020;28;20182;-78
2021/03/31 02:17:38;;;;;;;1.97;1.70;;;4.30;99.90;;;;;;5046153;28;20213;-79
2021/03/31 02:20:07;;;;;;;4.67;2.83;;;4.30;99.90;;;;;;5044745;28;20194;-79
2021/03/31 02:22:34;;;;;;;3.77;2.43;;;4.40;99.90;;;;;;5045813;28;20198;-78
2021/03/31 02:25:00;;;;;;;3.70;2.27;;;4.40;99.90;;;;;;5046790;28;20190;-79
2021/03/31 02:27:26;;;;;;;3.03;2.43;;;4.50;99.90;;;;;;5041499;28;20266;-81
2021/03/31 02:29:53;;;;;;;4.80;3.33;;;4.60;99.90;;;;;;5047215;28;20682;-79
2021/03/31 02:32:22;;;;;;;3.87;2.40;;;4.60;99.90;;;;;;5047752;28;20186;-82
2021/03/31 02:34:52;;;;;;;2.63;2.13;;;4.50;99.90;;;;;;5046762;28;20261;-79
2021/03/31 02:37:19;;;;;;;3.93;2.30;;;4.50;99.90;;;;;;5045568;28;20217;-78
2021/03/31 02:39:47;;;;;;;2.90;2.07;;;4.50;99.90;;;;;;5045890;28;20268;-78
2021/03/31 02:42:15;;;;;;;3.03;2.37;;;4.40;99.90;;;;;;5045073;28;20554;-78
2021/03/31 02:44:45;;;;;;;3.00;2.20;;;4.40;99.90;;;;;;5047312;28;20262;-78
2021/03/31 02:47:13;;;;;;;2.60;1.90;;;4.30;99.90;;;;;;5044042;28;20275;-78
2021/03/31 02:49:42;;;;;;;3.83;2.83;;;4.20;99.90;;;;;;5042118;28;20235;-80
2021/03/31 02:52:08;;;;;;;4.07;2.27;;;4.10;99.90;;;;;;5046017;28;20193;-80
2021/03/31 02:54:34;;;;;;;5.40;3.07;;;4.10;99.90;;;;;;5060809;28;20260;-80
2021/03/31 02:57:00;;;;;;;6.80;3.37;;;4.10;99.90;;;;;;5046406;28;20214;-79
2021/03/31 02:59:26;;;;;;;4.53;2.87;;;4.20;99.90;;;;;;5044899;28;20191;-79
2021/03/31 03:01:53;;;;;;;2.90;2.43;;;4.20;99.90;;;;;;5043752;28;20213;-81
2021/03/31 03:04:20;;;;;;;2.87;2.40;;;4.30;99.90;;;;;;5045763;28;20198;-79
2021/03/31 03:06:46;;;;;;;3.57;2.00;;;4.30;99.90;;;;;;5044280;28;20202;-81
2021/03/31 03:09:13;;;;;;;3.37;2.10;;;4.30;99.90;;;;;;5045069;28;20216;-79
2021/03/31 03:11:39;;;;;;;4.17;2.83;;;4.30;99.90;;;;;;5048266;28;20229;-82
2021/03/31 03:14:07;;;;;;;2.40;2.10;;;4.30;99.90;;;;;;5047465;28;20193;-79
2021/03/31 03:16:33;;;;;;;3.90;1.80;;;4.40;99.90;;;;;;5047121;28;20850;-79
2021/03/31 03:18:59;;;;;;;3.60;2.53;;;4.40;99.90;;;;;;5047934;28;20197;-78
2021/03/31 03:21:28;;;;;;;6.90;2.57;;;4.40;99.90;;;;;;5046862;28;21184;-79
2021/03/31 03:23:56;;;;;;;4.23;2.73;;;4.40;99.90;;;;;;5047553;28;20273;-81
2021/03/31 03:26:23;;;;;;;3.60;3.00;;;4.40;99.90;;;;;;5048148;28;20209;-79
2021/03/31 03:28:49;;;;;;;3.50;2.40;;;4.40;99.90;;;;;;5046295;28;20182;-81
2021/03/31 03:31:15;;;;;;;5.23;3.10;;;4.50;99.90;;;;;;5038635;28;20186;-78
2021/03/31 03:33:42;;;;;;;5.10;3.03;;;4.50;99.90;;;;;;5046262;28;20212;-80
2021/03/31 03:36:10;;;;;;;3.33;2.57;;;4.60;99.90;;;;;;5048544;28;20710;-81
2021/03/31 03:38:37;;;;;;;4.53;2.40;;;4.70;99.90;;;;;;5045032;28;20632;-81
2021/03/31 03:41:07;;;;;;;4.47;2.53;;;4.70;99.90;;;;;;5046484;28;20256;-81
2021/03/31 03:43:33;;;;;;;4.20;2.63;;;4.60;99.90;;;;;;5046665;28;20189;-80
2021/03/31 03:46:01;;;;;;;4.13;2.77;;;4.60;99.90;;;;;;5045763;28;20182;-79
2021/03/31 03:48:26;;;;;;;4.47;2.87;;;4.50;99.90;;;;;;5047826;28;20201;-79
2021/03/31 03:50:53;;;;;;;3.87;2.23;;;4.50;99.90;;;;;;5045308;28;20186;-80
2021/03/31 03:53:19;;;;;;;3.63;2.63;;;4.40;99.90;;;;;;5045930;28;20205;-78
2021/03/31 03:55:45;;;;;;;2.40;2.20;;;4.40;99.90;;;;;;5047508;28;20281;-80
2021/03/31 03:58:11;;;;;;;4.33;2.70;;;4.30;99.90;;;;;;5047152;28;20359;-81
2021/03/31 04:00:38;;;;;;;4.73;2.90;;;4.20;99.90;;;;;;5047462;28;20691;-82
2021/03/31 04:03:04;;;;;;;4.00;2.30;;;4.10;99.90;;;;;;5047179;28;20218;-80
2021/03/31 04:05:29;;;;;;;4.80;2.53;;;4.10;99.90;;;;;;5046984;28;20185;-80
2021/03/31 04:07:55;;;;;;;3.43;2.30;;;4.00;99.90;;;;;;5045319;28;20206;-79
2021/03/31 04:10:29;;;;;;;5.50;3.60;;;4.00;99.90;;;;;;5046388;28;20186;-81
2021/03/31 04:12:58;;;;;;;3.23;2.33;;;4.00;99.90;;;;;;5044489;28;20190;-80
2021/03/31 04:15:24;;;;;;;3.87;2.37;;;4.10;99.90;;;;;;5045578;28;20205;-80
2021/03/31 04:17:50;;;;;;;3.47;2.33;;;4.20;99.90;;;;;;5046844;28;20336;-80
2021/03/31 04:20:20;;;;;;;4.80;3.03;;;4.20;99.90;;;;;;5046403;28;20671;-79
2021/03/31 04:22:47;;;;;;;5.00;3.30;;;4.20;99.90;;;;;;5045855;28;20206;-82
2021/03/31 04:25:14;;;;;;;4.63;2.77;;;4.20;99.90;;;;;;5044402;28;20212;-80
2021/03/31 04:27:40;;;;;;;3.17;2.87;;;4.30;99.90;;;;;;5046470;28;20198;-80
2021/03/31 04:30:08;;;;;;;7.70;3.60;;;4.30;99.90;;;;;;5045428;28;21302;-80
2021/03/31 04:32:36;;;;;;;3.57;2.20;;;4.30;99.90;;;;;;5045062;28;20259;-81
2021/03/31 04:35:03;;;;;;;3.23;2.37;;;4.40;99.90;;;;;;5045287;28;20206;-82
2021/03/31 04:37:29;;;;;;;4.03;2.40;;;4.30;99.90;;;;;;5045911;28;20296;-80
2021/03/31 04:39:54;;;;;;;4.33;2.73;;;4.30;99.90;;;;;;5046943;28;20257;-80
2021/03/31 04:42:21;;;;;;;6.10;2.50;;;4.20;99.90;;;;;;5044354;28;20213;-80
2021/03/31 04:44:47;;;;;;;5.53;3.20;;;4.20;99.90;;;;;;5043851;28;20178;-82
2021/03/31 04:47:12;;;;;;;4.20;2.93;;;4.30;99.90;;;;;;5044182;28;20601;-80
2021/03/31 04:49:38;;;;;;;3.83;2.50;;;4.20;99.90;;;;;;5048041;28;20186;-81
2021/03/31 04:52:04;;;;;;;5.00;2.73;;;4.20;99.90;;;;;;5047911;28;20186;-80
2021/03/31 04:54:29;;;;;;;3.63;2.47;;;4.20;99.90;;;;;;5048725;28;20193;-81
2021/03/31 04:56:55;;;;;;;5.80;3.80;;;4.20;99.90;;;;;;5048891;28;20210;-79
2021/03/31 04:59:20;;;;;;;3.90;2.67;;;4.30;99.90;;;;;;5047773;28;20363;-80
2021/03/31 05:01:46;;;;;;;2.63;2.40;;;4.20;99.90;;;;;;5047971;28;20291;-81
2021/03/31 05:04:12;;;;;;;4.07;2.67;;;4.20;99.90;;;;;;5046972;28;20235;-80
2021/03/31 05:06:37;;;;;;;3.10;2.60;;;4.20;99.90;;;;;;5048023;28;20281;-80
2021/03/31 05:09:03;;;;;;;5.17;3.43;;;4.20;99.90;;;;;;5047259;28;20662;-81
2021/03/31 05:11:29;;;;;;;5.83;3.60;;;4.20;99.90;;;;;;5048714;28;20195;-80
2021/03/31 05:13:55;;;;;;;3.70;2.57;;;4.30;99.90;;;;;;5047876;28;20186;-80
2021/03/31 05:16:21;;;;;;;4.23;3.13;;;4.30;99.90;;;;;;5047447;28;20251;-80
2021/03/31 05:18:46;;;;;;;7.40;3.73;;;4.40;99.90;;;;;;5046180;28;20247;-81
2021/03/31 05:21:12;;;;;;;4.37;3.33;;;4.50;99.90;;;;;;5047752;28;20256;-80
2021/03/31 05:23:38;;;;;;;4.40;3.13;;;4.40;99.90;;;;;;5047434;28;20186;-80
2021/03/31 05:26:03;;;;;;;3.67;3.00;;;4.50;99.90;;;;;;5045862;28;20636;-81
2021/03/31 05:28:29;;;;;;;6.53;4.13;;;4.60;99.90;;;;;;5047125;28;20204;-81
2021/03/31 05:30:55;;;;;;;3.97;3.37;;;4.70;99.90;;;;;;5044360;28;20186;-80
2021/03/31 05:33:20;;;;;;;3.40;3.03;;;4.80;99.90;;;;;;5048248;28;20217;-81
2021/03/31 05:35:46;;;;;;;6.83;3.40;;;4.90;99.90;;;;;;5048458;28;20546;-82
2021/03/31 05:38:12;;;;;;;4.27;3.43;;;5.00;99.90;;;;;;5049683;28;20218;-80
2021/03/31 05:40:37;;;;;;;4.40;2.77;;;5.10;99.90;;;;;;5051219;28;20825;-80
2021/03/31 05:43:03;;;;;;;5.63;3.53;;;5.20;99.90;;;;;;5050810;28;20319;-81
2021/03/31 05:45:31;;;;;;;4.43;3.40;;;5.40;99.90;;;;;;5048615;28;20220;-80
2021/03/31 05:47:58;;;;;;;5.30;3.17;;;5.60;99.90;;;;;;5049145;28;21009;-80
2021/03/31 05:50:24;;;;;;;5.33;3.40;;;5.70;99.90;;;;;;5048967;28;20189;-81
2021/03/31 05:52:50;;;;;;;5.17;2.70;;;5.70;99.90;;;;;;5049243;28;20186;-81
2021/03/31 05:55:17;;;;;;;5.80;3.10;;;5.80;99.90;;;;;;5050584;28;20546;-80
2021/03/31 05:57:43;;;;;;;4.47;3.17;;;5.80;99.90;;;;;;5049227;28;20920;-81
2021/03/31 06:00:21;;;;;;;5.20;3.37;;;5.90;99.90;;;;;;5048737;28;20193;-80
2021/03/31 06:02:48;;;;;;;5.63;3.30;;;5.90;99.90;;;;;;5049775;28;20206;-79
2021/03/31 06:05:16;;;;;;;4.80;3.80;;;5.90;99.90;;;;;;5048569;28;20225;-81
2021/03/31 06:07:43;;;;;;;7.80;3.63;;;6.10;99.90;;;;;;5050329;28;20202;-81
2021/03/31 06:10:16;;;;;;;5.07;4.03;;;6.20;99.90;;;;;;5048276;28;20545;-83
2021/03/31 06:12:56;;;;;;;4.87;3.10;;;6.40;99.90;;;;;;5048411;28;20261;-80
2021/03/31 06:15:45;;;;;;;7.63;3.80;;;6.60;99.90;;;;;;5050607;28;20170;-80
2021/03/31 06:18:12;;;;;;;5.67;4.07;;;6.80;99.90;;;;;;5048895;28;20202;-80
2021/03/31 06:20:50;;;;;;;4.60;3.10;;;6.90;99.90;;;;;;5050896;28;20178;-81
2021/03/31 06:26:05;;;;;;;4.60;3.50;;;7.10;99.90;;;;;;5050275;28;20236;-81
2021/03/31 06:28:37;;;;;;;5.80;3.37;;;7.20;99.90;;;;;;5050700;28;20178;-78
2021/03/31 06:31:15;;;;;;;6.07;3.77;;;7.30;99.90;;;;;;5047594;28;20178;-79
2021/03/31 06:33:44;;;;;;;7.07;4.00;;;7.50;99.90;;;;;;5048278;28;20251;-79
2021/03/31 06:36:11;;;;;;;5.43;3.57;;;7.60;99.90;;;;;;5045999;28;20189;-77
2021/03/31 06:38:46;;;;;;;7.63;3.57;;;7.70;99.90;;;;;;5046749;28;21179;-77
2021/03/31 06:41:30;;;;;;;5.07;3.63;;;7.80;99.90;;;;;;5045441;28;20178;-78
2021/03/31 06:46:34;;;;;;;7.83;3.70;;;8.10;99.90;;;;;;5046572;28;20257;-77
2021/03/31 06:49:00;;;;;;;6.90;4.13;;;8.20;99.90;;;;;;5046888;28;20243;-79
2021/03/31 06:51:30;;;;;;;6.00;3.83;;;8.40;99.90;;;;;;5046283;28;20186;-77
2021/03/31 06:54:11;;;;;;;8.73;4.57;;;8.50;99.90;;;;;;5046683;28;20192;-79
2021/03/31 06:56:37;;;;;;;5.60;3.53;;;8.70;99.90;;;;;;5044699;28;20285;-78
2021/03/31 06:59:02;;;;;;;6.33;3.80;;;8.90;99.90;;;;;;5045536;28;20615;-77
2021/03/31 07:01:32;;;;;;;6.90;3.60;;;9.00;99.90;;;;;;5045338;28;20747;-78
2021/03/31 07:04:03;;;;;;;6.33;3.50;;;9.20;99.90;;;;;;5045164;28;20197;-78
2021/03/31 07:06:29;;;;;;;7.07;3.53;;;9.40;99.90;;;;;;5044517;28;20269;-78
2021/03/31 07:08:55;;;;;;;6.70;4.23;;;9.60;99.90;;;;;;5042561;28;20186;-77
2021/03/31 07:11:37;;;;;;;4.40;3.60;;;9.70;99.90;;;;;;5042295;28;20210;-76
2021/03/31 07:14:03;;;;;;;6.90;3.77;;;9.90;99.90;;;;;;5043963;28;20186;-77
2021/03/31 07:16:31;;;;;;;6.13;3.87;;;10.20;99.90;;;;;;5042446;28;20690;-78
2021/03/31 07:18:57;;;;;;;5.03;3.70;;;10.30;99.90;;;;;;5041418;28;20190;-76
2021/03/31 07:21:24;;;;;;;7.27;4.13;;;10.50;99.90;;;;;;5041477;28;20260;-76
2021/03/31 07:23:52;;;;;;;7.70;4.50;;;10.80;99.90;;;;;;5043513;28;20177;-76
2021/03/31 07:26:20;;;;;;;6.03;4.17;;;10.90;99.90;;;;;;5040746;28;20202;-76
2021/03/31 07:28:48;;;;;;;7.37;4.80;;;11.10;99.90;;;;;;5041154;28;20178;-80
2021/03/31 07:31:20;;;;;;;5.80;4.43;;;11.30;99.90;;;;;;5041948;28;20656;-78
2021/03/31 07:33:54;;;;;;;7.53;4.30;;;11.60;99.90;;;;;;5041455;28;20228;-78
2021/03/31 07:36:21;;;;;;;7.70;4.53;;;11.80;99.90;;;;;;5042026;28;20194;-77
2021/03/31 07:38:48;;;;;;;7.27;4.97;;;12.10;99.90;;;;;;5041089;28;20213;-79
2021/03/31 07:41:13;;;;;;;8.57;4.70;;;12.40;99.90;;;;;;5041135;28;20209;-82
2021/03/31 07:43:44;;;;;;;6.87;4.30;;;12.60;99.90;;;;;;5042016;28;20682;-82
2021/03/31 07:46:16;;;;;;;6.20;4.20;;;12.90;99.90;;;;;;5032777;28;20182;-81
2021/03/31 07:48:44;;;;;;;6.77;4.40;;;13.10;99.90;;;;;;5041682;28;20182;-80
2021/03/31 07:51:27;;;;;;;6.13;3.90;;;13.30;99.90;;;;;;5041645;28;20182;-82
2021/03/31 07:53:58;;;;;;;7.90;4.90;;;13.50;99.90;;;;;;5040933;28;20283;-81
2021/03/31 07:56:31;;;;;;;8.48;4.35;;;13.70;99.90;;;;;;5040506;28;20202;-81
2021/03/31 07:59:03;;;;;;;9.23;4.35;;;13.60;99.90;;;;;;5040845;28;20218;-79
2021/03/31 08:01:34;;;;;;;7.22;4.50;;;13.80;99.90;;;;;;5042397;28;20209;-80
2021/03/31 08:04:02;;;;;;;7.53;4.32;;;14.10;99.90;;;;;;5034386;28;20232;-77
2021/03/31 08:06:32;;;;;;;8.73;4.75;;;14.30;99.90;;;;;;5040888;28;20277;-76
2021/03/31 08:09:07;;;;;;;6.95;4.43;;;14.50;99.90;;;;;;5044409;28;20564;-77
2021/03/31 08:11:38;;;;;;;8.43;4.30;;;14.70;99.90;;;;;;5044274;28;20182;-78
2021/03/31 08:14:07;;;;;;;7.45;4.22;;;15.00;99.90;;;;;;5044556;28;20190;-77
2021/03/31 08:16:44;;;;;;;6.55;4.65;;;15.20;99.90;;;;;;5042782;28;20255;-77
2021/03/31 08:19:13;;;;;;;7.10;4.38;;;15.40;99.90;;;;;;5044147;28;20186;-78
2021/03/31 08:21:40;;;;;;;9.10;5.15;;;15.70;99.90;;;;;;5032219;28;20691;-76
2021/03/31 08:24:06;;;;;;;8.90;3.58;;;16.00;99.90;;;;;;5044306;28;20186;-77
2021/03/31 08:26:38;;;;;;;8.75;4.90;;;16.10;99.90;;;;;;5046075;28;20206;-77
2021/03/31 08:29:27;;;;;;;7.30;5.22;;;16.20;99.90;;;;;;5045173;28;20178;-77
2021/03/31 08:31:53;;;;;;;8.02;4.72;;;16.50;99.90;;;;;;5047317;28;20243;-77
2021/03/31 08:34:19;;;;;;;11.52;4.47;;;16.60;99.90;;;;;;5046002;28;20657;-78
2021/03/31 08:36:45;;;;;;;10.32;4.55;;;16.80;99.90;;;;;;5047041;28;20907;-77
2021/03/31 08:39:13;;;;;;;7.85;4.25;;;17.00;99.90;;;;;;5045022;28;20243;-78
2021/03/31 08:41:44;;;;;;;8.32;3.67;;;17.10;99.90;;;;;;5043948;28;20217;-77
2021/03/31 08:44:17;;;;;;;6.32;3.80;;;17.30;99.90;;;;;;5046092;28;20208;-76
2021/03/31 08:46:43;;;;;;;7.20;3.55;;;17.40;99.90;;;;;;5046623;28;20214;-77
2021/03/31 08:49:24;;;;;;;6.45;4.65;;;17.60;99.90;;;;;;5046568;28;21186;-78
2021/03/31 08:51:53;;;;;;;8.48;4.68;;;17.80;99.90;;;;;;5046802;28;20182;-78
2021/03/31 08:54:40;;;;;;;7.88;4.55;;;17.90;99.90;;;;;;5046396;28;20241;-78
2021/03/31 08:57:20;;;;;;;7.40;4.32;;;17.90;99.90;;;;;;5047431;28;20237;-78
2021/03/31 08:59:49;;;;;;;5.85;4.10;;;18.10;99.90;;;;;;5046966;28;20178;-78
2021/03/31 09:02:18;;;;;;;8.88;4.43;;;18.30;99.90;;;;;;5047960;28;20919;-78
2021/03/31 09:04:43;;;;;;;5.82;3.63;;;18.50;99.90;;;;;;5049140;28;20240;-78
2021/03/31 09:07:10;;;;;;;7.03;4.10;;;18.80;99.90;;;;;;5048483;28;20202;-79
2021/03/31 09:09:41;;;;;;;5.80;3.53;;;18.90;99.90;;;;;;5045737;28;20235;-77
2021/03/31 09:12:11;;;;;;;7.18;3.95;;;19.10;99.90;;;;;;5038146;28;20178;-80
2021/03/31 09:14:40;;;;;;;4.63;3.17;;;19.20;99.90;;;;;;5044639;28;20192;-77
2021/03/31 09:17:08;;;;;;;6.82;4.40;;;19.30;99.90;;;;;;5043619;28;20738;-76
2021/03/31 09:19:37;;;;;;;8.35;4.40;;;19.50;99.90;;;;;;5043647;28;20194;-76
2021/03/31 09:22:09;;;;;;;6.28;3.40;;;19.60;99.90;;;;;;5043818;28;20259;-79
2021/03/31 09:24:38;;;;;;;6.57;3.88;;;19.60;99.90;;;;;;5042523;28;20490;-76
2021/03/31 09:27:06;;;;;;;7.95;3.45;;;19.70;99.90;;;;;;5041472;28;20742;-75
2021/03/31 09:29:34;;;;;;;5.63;3.55;;;19.90;99.90;;;;;;5040510;28;20189;-76
2021/03/31 09:32:02;;;;;;;5.32;3.90;;;19.90;99.90;;;;;;5043910;28;20186;-79
2021/03/31 09:34:28;;;;;;;4.70;3.47;;;20.10;99.90;;;;;;5043208;28;20187;-77
2021/03/31 09:37:14;;;;;;;6.30;3.83;;;20.20;99.90;;;;;;5043390;28;20212;-76
2021/03/31 09:39:47;;;;;;;6.35;3.10;;;20.30;99.90;;;;;;5045607;28;20189;-76
2021/03/31 09:42:34;;;;;;;5.57;3.30;;;20.40;99.90;;;;;;5043431;28;20495;-76
2021/03/31 09:45:04;;;;;;;6.53;3.40;;;20.50;99.90;;;;;;5043881;28;20217;-76
2021/03/31 09:47:30;;;;;;;5.53;3.35;;;20.60;98.20;;;;;;5043811;28;20263;-77
2021/03/31 09:49:57;;;;;;;5.65;3.33;;;20.60;98.10;;;;;;5045071;28;20178;-79
2021/03/31 09:52:31;;;;;;;4.82;3.70;;;20.60;99.10;;;;;;5043588;28;20487;-75
2021/03/31 09:55:06;;;;;;;6.75;3.55;;;20.80;98.80;;;;;;5045540;28;20190;-80
2021/03/31 09:57:38;;;;;;;7.95;4.22;;;20.90;97.40;;;;;;5044658;28;20500;-76
2021/03/31 10:00:07;;;;;;;5.63;3.38;;;20.90;98.80;;;;;;5043931;28;20551;-76
2021/03/31 10:02:34;;;;;;;6.47;3.45;;;21.00;97.20;;;;;;5042464;28;20252;-77
2021/03/31 10:05:02;;;;;;;5.85;3.83;;;21.10;98.30;;;;;;5044273;28;20178;-76
2021/03/31 10:07:28;;;;;;;6.40;3.60;;;21.10;98.70;;;;;;5044675;28;20198;-80
2021/03/31 10:09:54;;;;;;;8.27;4.40;;;21.20;97.80;;;;;;5044639;28;20185;-75
2021/03/31 10:12:28;;;;;;;8.18;4.70;;;21.30;98.40;;;;;;5043051;28;20182;-75
2021/03/31 10:14:56;;;;;;;5.43;3.40;;;21.40;96.90;;;;;;5044784;28;20197;-77
2021/03/31 10:17:24;;;;;;;5.82;3.50;;;21.60;95.20;;;;;;5042929;28;20214;-76
2021/03/31 10:19:51;;;;;;;6.15;3.55;;;21.70;93.00;;;;;;5044264;28;20675;-77
2021/03/31 10:22:18;;;;;;;5.63;3.70;;;21.80;95.20;;;;;;5041304;28;20304;-76
2021/03/31 10:24:48;;;;;;;4.45;2.88;;;21.90;94.40;;;;;;5043717;28;20232;-79
2021/03/31 10:27:16;;;;;;;5.10;3.15;;;22.10;93.10;;;;;;5041729;28;20367;-78
2021/03/31 10:29:51;;;;;;;5.05;3.28;;;22.10;90.60;;;;;;5041103;28;20190;-79
2021/03/31 10:32:22;;;;;;;6.13;3.92;;;22.30;90.50;;;;;;5041552;28;20619;-78
2021/03/31 10:34:53;;;;;;;4.03;3.28;;;22.30;86.20;;;;;;5041127;28;20193;-78
2021/03/31 10:37:32;;;;;;;4.63;3.30;;;22.20;86.10;;;;;;5041995;28;20715;-78
2021/03/31 10:53:44;;;;;;;5.00;3.03;;;22.60;84.70;;;;;;5042436;28;20174;-78
2021/03/31 10:56:11;;;;;;;3.10;2.47;;;22.70;80.60;;;;;;5042202;28;20186;-78
2021/03/31 10:58:37;;;;;;;6.38;2.65;;;22.90;69.80;;;;;;5042022;28;20181;-79
2021/03/31 11:01:03;;;;;;;3.90;2.25;;;22.90;70.60;;;;;;5042074;28;20269;-78
2021/03/31 11:03:29;;;;;;;3.42;2.30;;;22.90;68.90;;;;;;5041886;28;20691;-78
2021/03/31 11:05:54;;;;;;;2.90;2.25;;;23.00;68.30;;;;;;5042137;28;20182;-76
2021/03/31 11:08:22;;;;;;;2.72;2.08;;;23.10;67.40;;;;;;5041710;28;20686;-78
2021/03/31 11:10:48;;;;;;;5.70;2.53;;;23.10;63.80;;;;;;5041353;28;20213;-78
2021/03/31 11:13:13;;;;;;;4.55;2.50;;;23.10;65.70;;;;;;5033394;28;20233;-78
2021/03/31 11:15:39;;;;;;;5.50;2.80;;;23.10;65.00;;;;;;5042545;28;20933;-77
2021/03/31 11:26:37;;;;;;;3.63;2.53;;;23.20;61.00;;;;;;5042554;28;20563;-77
2021/03/31 11:29:03;;;;;;;3.63;2.40;;;23.20;63.20;;;;;;5042280;28;20201;-76
2021/03/31 11:31:28;;;;;;;4.18;2.63;;;23.20;63.40;;;;;;5042214;28;20663;-76
2021/03/31 11:33:54;;;;;;;4.55;2.80;;;23.20;62.80;;;;;;5041762;28;20248;-76
2021/03/31 11:36:19;;;;;;;4.15;2.50;;;23.20;60.60;;;;;;5042215;28;20260;-74
2021/03/31 11:38:45;;;;;;;4.30;2.80;;;23.30;62.60;;;;;;5050609;28;20249;-78
2021/03/31 11:41:11;;;;;;;5.50;2.40;;;23.50;62.20;;;;;;5043950;28;20182;-77
2021/03/31 11:43:37;;;;;;;4.50;2.72;;;23.40;60.30;;;;;;5043998;28;20182;-77
2021/03/31 11:46:03;;;;;;;4.82;2.20;;;23.30;59.90;;;;;;5044183;28;20185;-77
2021/03/31 11:48:30;;;;;;;4.63;3.17;;;23.30;59.20;;;;;;5040863;28;20454;-78
2021/03/31 11:50:55;;;;;;;3.88;2.97;;;23.30;58.60;;;;;;5043311;28;20256;-77
2021/03/31 11:53:21;;;;;;;3.63;2.55;;;23.60;58.00;;;;;;5041427;28;20233;-73
2021/03/31 11:55:47;;;;;;;2.83;2.08;;;23.60;58.10;;;;;;5044965;28;20185;-77
2021/03/31 11:58:12;;;;;;;3.30;1.90;;;23.60;56.00;;;;;;5044673;28;20289;-77
2021/03/31 12:00:38;;;;;;;1.90;1.60;;;23.70;54.50;;;;;;5049806;28;20660;-77
2021/03/31 12:03:06;;;;;;;3.53;2.50;;;23.70;55.80;;;;;;5041032;28;20683;-77
2021/03/31 12:05:32;;;;;;;1.98;1.45;;;23.70;55.50;;;;;;5049090;28;20320;-78
2021/03/31 12:07:58;;;;;;;1.88;1.67;;;23.60;54.20;;;;;;5046642;28;20277;-77
2021/03/31 12:10:24;;;;;;;2.90;1.60;;;23.50;54.50;;;;;;5045439;28;20178;-77
2021/03/31 12:12:50;;;;;;;1.80;1.58;;;23.60;55.40;;;;;;5045757;28;20189;-76
2021/03/31 12:15:15;;;;;;;3.15;2.03;;;23.60;54.20;;;;;;5047456;28;20751;-77
2021/03/31 12:17:42;;;;;;;3.10;1.90;;;23.70;51.90;;;;;;5045915;28;20198;-76
2021/03/31 12:20:11;;;;;;;2.25;2.00;;;23.80;52.60;;;;;;5045642;28;20193;-79
2021/03/31 12:22:37;;;;;;;2.13;1.90;;;23.70;51.90;;;;;;5045269;28;20212;-78
2021/03/31 12:25:05;;;;;;;2.38;1.80;;;23.80;52.00;;;;;;5044042;28;20182;-78
2021/03/31 12:27:33;;;;;;;2.10;1.35;;;23.70;52.10;;;;;;5046336;28;20194;-77
2021/03/31 12:29:59;;;;;;;2.40;1.67;;;23.60;52.00;;;;;;5046268;28;20175;-77
2021/03/31 12:32:25;;;;;;;2.05;1.33;;;23.60;50.40;;;;;;5039997;28;20178;-78
2021/03/31 12:34:52;;;;;;;1.67;1.50;;;23.60;50.60;;;;;;5045139;28;20568;-78
2021/03/31 12:37:18;;;;;;;3.20;1.80;;;23.60;52.50;;;;;;5045518;28;20749;-77
2021/03/31 12:39:43;;;;;;;2.40;1.70;;;23.60;52.10;;;;;;5047096;28;20186;-78
2021/03/31 12:42:09;;;;;;;2.60;1.88;;;23.60;51.50;;;;;;5047361;28;20206;-78
2021/03/31 12:44:35;;;;;;;2.00;1.40;;;23.70;51.80;;;;;;5045624;28;20538;-77
2021/03/31 12:47:00;;;;;;;2.28;1.52;;;23.60;51.40;;;;;;5044980;28;20240;-77
2021/03/31 12:49:28;;;;;;;3.08;1.92;;;23.50;51.40;;;;;;5046562;28;20646;-77
2021/03/31 12:51:57;;;;;;;2.08;1.42;;;23.50;50.80;;;;;;5045331;28;20182;-76
2021/03/31 12:54:27;;;;;;;2.20;1.73;;;23.50;50.40;;;;;;5046299;28;20186;-77
2021/03/31 12:56:53;;;;;;;2.45;1.88;;;23.50;50.90;;;;;;5045596;28;20202;-74
2021/03/31 12:59:19;;;;;;;2.60;1.40;;;23.60;51.00;;;;;;5038443;28;20186;-77
2021/03/31 13:01:45;;;;;;;2.13;1.80;;;23.70;49.40;;;;;;5044048;28;20695;-77
2021/03/31 13:04:12;;;;;;;2.80;1.80;;;23.80;50.70;;;;;;5045763;28;20376;-76
2021/03/31 13:06:38;;;;;;;2.30;2.10;;;23.80;51.60;;;;;;5045624;28;20194;-79
2021/03/31 13:09:05;;;;;;;2.67;1.92;;;23.80;50.30;;;;;;5043842;28;20182;-77
2021/03/31 13:11:31;;;;;;;3.95;2.08;;;23.70;50.70;;;;;;5041696;28;20185;-77
2021/03/31 13:25:13;;;;;;;2.03;1.70;;;23.70;49.20;;;;;;5037389;28;20187;-77
2021/03/31 13:30:47;;;;;;;1.70;1.55;;;23.70;50.20;;;;;;4989606;28;20207;-77
2021/03/31 13:33:34;;;;;;;2.78;2.00;;;23.70;50.50;;;;;;5038641;28;20190;-77
2021/03/31 13:36:12;;;;;;;2.80;1.83;;;23.70;48.80;;;;;;5048849;28;20220;-77
2021/03/31 13:41:12;;;;;;;4.22;2.20;;;23.90;49.50;;;;;;5047175;28;20178;-78
2021/03/31 13:43:38;;;;;;;6.40;2.20;;;23.90;49.40;;;;;;5048233;28;20316;-77
2021/03/31 13:46:03;;;;;;;3.40;2.10;;;23.90;48.70;;;;;;5048312;28;20185;-78